Time;durP1;ratioP1;P1;durP2;ratioP2;P2;SDS_P1;SDS_P2;PMS_P1;PMS_P2;Temp;Humidity;BMP_temperature;BMP_pressure;BME280_temperature;BME280_humidity;BME280_pressure;Samples;Min_cycle;Max_cycle;Signal;HPM_P1;HPM_P2
2021/12/12 00:00:50;;;;;;;14.97;11.10;;;3.00;89.60;;;;;;5033133;28;20233;-69
2021/12/12 00:03:37;;;;;;;17.07;12.50;;;3.00;89.40;;;;;;5039321;28;20286;-69
2021/12/12 00:06:12;;;;;;;14.17;10.93;;;2.90;89.30;;;;;;5025525;28;20314;-69
2021/12/12 00:08:41;;;;;;;18.37;12.97;;;2.90;89.50;;;;;;5048246;28;20215;-69
2021/12/12 00:11:12;;;;;;;17.20;12.53;;;2.90;89.60;;;;;;5053179;28;20218;-69
2021/12/12 00:13:51;;;;;;;15.50;12.33;;;3.00;89.70;;;;;;5032246;28;20217;-69
2021/12/12 00:16:18;;;;;;;20.40;13.20;;;3.00;89.80;;;;;;5024276;28;20228;-69
2021/12/12 00:18:55;;;;;;;20.30;12.80;;;3.00;89.60;;;;;;5038269;28;20219;-69
2021/12/12 00:21:25;;;;;;;17.97;12.77;;;3.00;89.30;;;;;;5035675;28;20207;-69
2021/12/12 00:23:52;;;;;;;18.17;12.60;;;3.00;89.20;;;;;;5033425;28;20222;-69
2021/12/12 00:26:20;;;;;;;15.33;12.13;;;3.00;89.10;;;;;;5035441;28;20215;-69
2021/12/12 00:28:47;;;;;;;18.43;13.07;;;3.00;89.10;;;;;;5034637;28;20297;-69
2021/12/12 00:31:18;;;;;;;17.47;12.70;;;3.00;89.10;;;;;;5035507;28;20271;-69
2021/12/12 00:33:49;;;;;;;16.80;12.50;;;3.00;88.90;;;;;;5034232;28;20216;-69
2021/12/12 00:36:17;;;;;;;18.73;12.57;;;3.00;88.90;;;;;;5039936;28;20211;-69
2021/12/12 00:38:53;;;;;;;17.23;12.53;;;3.00;88.90;;;;;;5053747;28;20217;-69
2021/12/12 00:41:27;;;;;;;17.83;12.83;;;3.00;88.80;;;;;;5058486;28;20233;-69
2021/12/12 00:43:55;;;;;;;17.37;12.43;;;3.00;88.60;;;;;;5024986;28;20736;-69
2021/12/12 00:46:24;;;;;;;18.00;13.50;;;3.00;88.40;;;;;;5035554;28;20538;-69
2021/12/12 00:48:52;;;;;;;18.50;12.40;;;3.00;88.40;;;;;;5053783;28;20643;-69
2021/12/12 00:51:29;;;;;;;19.93;13.23;;;3.00;88.30;;;;;;5039955;28;20306;-68
2021/12/12 00:53:58;;;;;;;16.80;13.00;;;3.00;88.10;;;;;;5025390;28;20222;-68
2021/12/12 00:56:25;;;;;;;15.87;12.10;;;3.00;88.10;;;;;;5034663;28;20560;-68
2021/12/12 00:58:53;;;;;;;17.13;12.67;;;3.00;88.00;;;;;;5031360;28;20285;-68
2021/12/12 01:01:30;;;;;;;17.73;12.70;;;3.00;87.90;;;;;;5050006;28;20579;-68
2021/12/12 01:04:05;;;;;;;18.67;12.57;;;3.00;87.90;;;;;;5039547;28;20209;-68
2021/12/12 01:06:33;;;;;;;18.07;12.57;;;3.00;87.80;;;;;;5046954;28;20239;-68
2021/12/12 01:09:05;;;;;;;17.60;12.40;;;2.90;87.80;;;;;;5033526;28;20282;-69
2021/12/12 01:11:37;;;;;;;17.57;13.50;;;2.90;87.80;;;;;;5044154;28;20225;-69
2021/12/12 01:14:09;;;;;;;15.77;12.33;;;2.90;87.60;;;;;;5046711;28;20378;-69
2021/12/12 01:16:51;;;;;;;15.47;12.13;;;2.80;87.60;;;;;;5036095;28;20341;-69
2021/12/12 01:19:25;;;;;;;17.67;12.80;;;2.80;87.60;;;;;;5051540;28;20301;-69
2021/12/12 01:21:58;;;;;;;17.23;13.83;;;2.70;87.70;;;;;;5038597;28;20558;-69
2021/12/12 01:24:36;;;;;;;16.80;12.70;;;2.70;87.80;;;;;;5039021;28;20225;-69
2021/12/12 01:27:06;;;;;;;18.87;12.27;;;2.70;88.00;;;;;;5047868;28;20239;-68
2021/12/12 01:29:35;;;;;;;14.60;11.07;;;2.70;88.10;;;;;;5051377;28;20719;-69
2021/12/12 01:32:12;;;;;;;17.67;12.20;;;2.70;88.00;;;;;;5037633;28;20295;-69
2021/12/12 01:34:39;;;;;;;14.50;11.23;;;2.60;88.10;;;;;;5024270;28;20218;-69
2021/12/12 01:39:53;;;;;;;17.27;12.07;;;2.60;88.20;;;;;;5049582;28;20207;-69
2021/12/12 01:42:29;;;;;;;14.70;11.17;;;2.60;88.40;;;;;;5027293;28;20655;-69
2021/12/12 01:45:03;;;;;;;15.83;11.17;;;2.60;88.30;;;;;;5041565;28;20207;-69
2021/12/12 01:47:38;;;;;;;14.63;10.93;;;2.60;88.30;;;;;;5039853;28;20203;-69
2021/12/12 01:50:11;;;;;;;15.97;11.07;;;2.50;88.10;;;;;;5044507;28;20210;-69
2021/12/12 01:52:40;;;;;;;14.70;10.97;;;2.50;88.10;;;;;;5039049;28;20541;-69
2021/12/12 01:55:22;;;;;;;16.50;11.33;;;2.50;88.10;;;;;;5038204;28;20230;-69
2021/12/12 01:57:53;;;;;;;12.97;10.17;;;2.50;88.10;;;;;;5041850;28;20218;-69
2021/12/12 02:00:33;;;;;;;15.40;11.10;;;2.50;87.90;;;;;;5027941;28;20224;-69
2021/12/12 02:03:03;;;;;;;15.00;10.27;;;2.60;88.00;;;;;;5051383;28;20218;-69
2021/12/12 02:05:38;;;;;;;14.63;11.17;;;2.60;88.10;;;;;;5042634;28;20211;-69
2021/12/12 02:08:11;;;;;;;14.97;11.47;;;2.50;88.10;;;;;;5050952;28;20539;-69
2021/12/12 02:10:43;;;;;;;15.10;10.73;;;2.50;88.10;;;;;;5045052;28;20226;-69
2021/12/12 02:13:14;;;;;;;15.50;10.67;;;2.50;87.90;;;;;;5022665;28;20216;-68
2021/12/12 02:15:45;;;;;;;14.93;11.57;;;2.40;87.90;;;;;;5037562;28;20266;-68
2021/12/12 02:18:16;;;;;;;15.23;11.23;;;2.40;88.10;;;;;;5039029;28;20219;-68
2021/12/12 02:21:05;;;;;;;16.17;11.40;;;2.40;88.10;;;;;;5037330;28;20206;-68
2021/12/12 02:37:12;;;;;;;17.90;9.87;;;2.30;88.00;;;;;;5046061;28;20226;-68
2021/12/12 02:39:40;;;;;;;15.23;9.97;;;2.30;88.20;;;;;;5045580;28;20203;-68
2021/12/12 02:42:12;;;;;;;15.93;10.27;;;2.30;88.20;;;;;;5041643;28;20294;-68
2021/12/12 02:44:42;;;;;;;13.60;9.10;;;2.20;88.20;;;;;;5038959;28;20225;-68
2021/12/12 02:47:14;;;;;;;10.33;8.33;;;2.30;88.40;;;;;;5019836;28;20560;-68
2021/12/12 02:52:23;;;;;;;13.23;8.13;;;2.20;88.40;;;;;;5027502;28;20204;-68
2021/12/12 02:54:51;;;;;;;11.70;8.50;;;2.20;88.50;;;;;;5049914;28;20211;-68
2021/12/12 02:57:19;;;;;;;12.47;8.50;;;2.30;88.50;;;;;;5053467;28;20230;-68
2021/12/12 02:59:50;;;;;;;11.03;8.20;;;2.30;88.40;;;;;;5023662;28;20219;-68
2021/12/12 03:02:26;;;;;;;12.80;7.90;;;2.30;88.30;;;;;;5042562;28;20742;-68
2021/12/12 03:04:57;;;;;;;9.97;7.50;;;2.30;88.10;;;;;;5048625;28;20217;-68
2021/12/12 03:07:25;;;;;;;12.67;9.00;;;2.30;88.00;;;;;;5036232;28;20234;-68
2021/12/12 03:09:57;;;;;;;12.10;7.83;;;2.30;87.90;;;;;;5037069;28;20215;-68
2021/12/12 03:12:31;;;;;;;11.53;7.67;;;2.30;87.90;;;;;;5046230;28;20211;-68
2021/12/12 03:15:04;;;;;;;12.27;7.73;;;2.30;87.90;;;;;;5035421;28;20230;-68
2021/12/12 03:17:32;;;;;;;12.17;7.97;;;2.30;87.90;;;;;;5018922;28;20235;-68
2021/12/12 03:20:10;;;;;;;12.00;7.93;;;2.30;87.80;;;;;;5039809;28;20207;-68
2021/12/12 03:22:37;;;;;;;11.77;8.27;;;2.30;87.70;;;;;;5042990;28;20230;-68
2021/12/12 03:25:07;;;;;;;14.33;8.03;;;2.30;87.60;;;;;;5049493;28;20213;-68
2021/12/12 03:27:35;;;;;;;12.97;8.53;;;2.30;87.50;;;;;;5053294;28;20221;-68
2021/12/12 03:30:05;;;;;;;11.63;8.27;;;2.30;87.70;;;;;;5049369;28;20310;-68
2021/12/12 03:32:33;;;;;;;13.63;9.00;;;2.30;87.70;;;;;;5025317;28;20229;-68
2021/12/12 03:35:01;;;;;;;11.83;8.57;;;2.30;87.50;;;;;;5020790;28;20547;-68
2021/12/12 03:37:31;;;;;;;12.53;8.23;;;2.30;87.50;;;;;;5035666;28;20243;-68
2021/12/12 03:40:08;;;;;;;12.87;8.77;;;2.30;87.40;;;;;;5042718;28;20517;-68
2021/12/12 03:42:35;;;;;;;13.20;7.80;;;2.30;87.40;;;;;;5040817;28;20290;-68
2021/12/12 03:45:05;;;;;;;13.00;8.37;;;2.30;87.40;;;;;;5042171;28;20211;-68
2021/12/12 03:47:37;;;;;;;11.20;7.60;;;2.30;87.40;;;;;;5037584;28;20552;-68
2021/12/12 03:50:14;;;;;;;11.20;7.63;;;2.30;87.30;;;;;;5034853;28;20547;-68
2021/12/12 03:52:42;;;;;;;12.07;8.63;;;2.30;87.20;;;;;;5045495;28;20306;-69
2021/12/12 03:55:11;;;;;;;10.33;8.07;;;2.30;87.10;;;;;;5018707;28;20225;-69
2021/12/12 03:57:39;;;;;;;11.87;8.37;;;2.20;86.90;;;;;;5037961;28;20227;-69
2021/12/12 04:00:13;;;;;;;12.30;8.40;;;2.30;86.90;;;;;;5032727;28;20274;-69
2021/12/12 04:02:41;;;;;;;13.27;7.73;;;2.30;86.90;;;;;;5023264;28;20603;-69
2021/12/12 04:05:08;;;;;;;10.33;8.53;;;2.30;87.00;;;;;;5041147;28;20577;-69
2021/12/12 04:07:36;;;;;;;11.93;8.03;;;2.20;86.90;;;;;;5016288;28;20217;-69
2021/12/12 04:10:06;;;;;;;11.87;7.87;;;2.20;86.80;;;;;;5037336;28;20211;-69
2021/12/12 04:12:33;;;;;;;12.73;8.20;;;2.20;86.70;;;;;;5040410;28;20227;-69
2021/12/12 04:15:01;;;;;;;11.70;8.40;;;2.20;86.70;;;;;;5028680;28;20565;-69
2021/12/12 04:17:30;;;;;;;12.77;8.73;;;2.20;86.70;;;;;;5049107;28;20329;-69
2021/12/12 04:20:00;;;;;;;11.70;8.40;;;2.20;86.80;;;;;;5053264;28;20218;-69
2021/12/12 04:22:32;;;;;;;11.67;7.93;;;2.20;86.60;;;;;;5027253;28;20215;-69
2021/12/12 04:25:00;;;;;;;12.70;8.97;;;2.20;86.50;;;;;;5042398;28;20213;-69
2021/12/12 04:27:28;;;;;;;11.73;8.60;;;2.20;86.50;;;;;;5030801;28;20215;-69
2021/12/12 04:29:56;;;;;;;11.17;8.33;;;2.20;85.90;;;;;;5035264;28;20256;-68
2021/12/12 04:32:26;;;;;;;14.07;9.27;;;2.20;85.70;;;;;;5046722;28;20210;-68
2021/12/12 04:35:14;;;;;;;11.57;8.30;;;2.20;85.90;;;;;;5006829;28;20227;-68
2021/12/12 04:37:42;;;;;;;13.13;9.50;;;2.20;86.00;;;;;;5023245;28;20245;-68
2021/12/12 04:40:12;;;;;;;11.33;7.70;;;2.20;86.10;;;;;;5032196;28;20282;-68
2021/12/12 04:42:41;;;;;;;11.33;8.53;;;2.10;86.20;;;;;;5030705;28;20294;-68
2021/12/12 04:45:37;;;;;;;12.07;8.50;;;2.10;86.20;;;;;;5042533;28;20552;-68
2021/12/12 04:51:23;;;;;;;15.80;9.47;;;2.10;86.30;;;;;;5043368;28;20234;-68
2021/12/12 04:53:59;;;;;;;13.57;8.87;;;2.10;86.30;;;;;;5044516;28;20207;-68
2021/12/12 04:56:53;;;;;;;11.90;9.20;;;2.10;86.20;;;;;;5034718;28;20708;-68
2021/12/12 04:59:27;;;;;;;13.07;9.40;;;2.10;86.20;;;;;;5018826;28;20683;-68
2021/12/12 05:02:28;;;;;;;13.23;9.93;;;2.10;86.20;;;;;;5032872;28;20212;-69
2021/12/12 05:05:26;;;;;;;13.53;8.37;;;2.10;86.30;;;;;;5038169;28;20277;-69
2021/12/12 05:08:11;;;;;;;13.03;9.07;;;2.10;86.30;;;;;;5034497;28;20221;-69
2021/12/12 05:10:51;;;;;;;13.93;9.47;;;2.10;86.10;;;;;;5030752;28;20226;-69
2021/12/12 05:13:32;;;;;;;12.90;8.50;;;2.10;86.20;;;;;;5036805;28;20290;-69
2021/12/12 05:16:06;;;;;;;11.83;8.40;;;2.10;86.10;;;;;;5039823;28;20214;-69
2021/12/12 05:18:46;;;;;;;11.60;8.83;;;2.10;86.10;;;;;;5026724;28;20207;-69
2021/12/12 05:21:16;;;;;;;11.37;8.13;;;2.10;86.00;;;;;;5033258;28;20282;-69
2021/12/12 05:23:51;;;;;;;11.40;7.90;;;2.10;86.00;;;;;;5037159;28;20220;-69
2021/12/12 05:26:56;;;;;;;9.47;7.37;;;2.10;85.90;;;;;;5040309;28;20224;-69
2021/12/12 05:29:30;;;;;;;13.03;7.13;;;2.10;85.90;;;;;;5015962;28;20235;-69
2021/12/12 05:32:00;;;;;;;10.47;7.33;;;2.10;85.80;;;;;;5036152;28;20251;-69
2021/12/12 05:34:30;;;;;;;9.07;6.87;;;2.10;85.70;;;;;;5037764;28;20238;-69
2021/12/12 05:37:01;;;;;;;9.10;7.27;;;2.00;85.60;;;;;;5025686;28;20254;-69
2021/12/12 05:39:30;;;;;;;10.73;6.90;;;2.10;85.60;;;;;;5050770;28;20207;-69
2021/12/12 05:41:58;;;;;;;9.03;6.97;;;2.00;85.60;;;;;;5053047;28;20207;-69
2021/12/12 05:44:27;;;;;;;8.70;6.53;;;2.10;85.60;;;;;;5034723;28;20642;-69
2021/12/12 05:46:57;;;;;;;10.50;7.17;;;2.10;85.60;;;;;;5032462;28;20715;-69
2021/12/12 05:49:24;;;;;;;11.10;7.47;;;2.10;85.60;;;;;;5025473;28;20238;-69
2021/12/12 05:51:52;;;;;;;10.47;7.50;;;2.10;85.60;;;;;;5039828;28;20299;-69
2021/12/12 05:54:19;;;;;;;12.17;7.60;;;2.10;85.50;;;;;;5039157;28;20233;-69
2021/12/12 05:56:47;;;;;;;9.93;7.23;;;2.10;85.50;;;;;;5040354;28;20232;-69
2021/12/12 05:59:14;;;;;;;9.20;6.53;;;2.10;85.30;;;;;;5030268;28;20313;-69
2021/12/12 06:01:42;;;;;;;8.20;6.80;;;2.10;85.30;;;;;;5035613;28;20634;-69
2021/12/12 06:04:10;;;;;;;9.50;6.20;;;2.10;85.20;;;;;;5039877;28;20608;-69
2021/12/12 06:06:41;;;;;;;8.07;5.80;;;2.10;85.30;;;;;;5042084;28;20249;-69
2021/12/12 06:09:11;;;;;;;10.57;6.10;;;2.10;85.30;;;;;;5026937;28;20219;-69
2021/12/12 06:11:42;;;;;;;7.00;4.93;;;2.10;85.30;;;;;;5051528;28;20210;-69
2021/12/12 06:14:09;;;;;;;7.07;5.00;;;2.10;85.10;;;;;;5038393;28;20277;-69
2021/12/12 06:16:38;;;;;;;5.30;4.67;;;2.00;85.10;;;;;;5051249;28;20238;-69
2021/12/12 06:19:15;;;;;;;5.10;3.70;;;2.00;85.00;;;;;;5029662;28;20203;-69
2021/12/12 06:21:43;;;;;;;6.73;3.73;;;2.00;85.00;;;;;;5038498;28;20606;-69
2021/12/12 06:24:11;;;;;;;5.63;3.90;;;2.00;84.90;;;;;;5037848;28;20658;-69
2021/12/12 06:26:38;;;;;;;4.87;3.47;;;2.00;84.90;;;;;;5035771;28;20651;-69
2021/12/12 06:29:08;;;;;;;4.43;2.93;;;2.00;84.70;;;;;;5026927;28;20228;-69
2021/12/12 06:31:42;;;;;;;5.17;3.30;;;2.00;84.50;;;;;;5049077;28;20252;-69
2021/12/12 06:34:11;;;;;;;5.90;3.10;;;2.00;84.60;;;;;;5054812;28;20224;-69
2021/12/12 06:36:39;;;;;;;3.23;2.90;;;2.00;84.50;;;;;;5052033;28;20301;-69
2021/12/12 06:39:09;;;;;;;3.83;3.00;;;2.00;84.50;;;;;;5037162;28;20804;-69
2021/12/12 06:41:38;;;;;;;4.00;3.07;;;2.00;84.40;;;;;;5022301;28;20211;-69
2021/12/12 06:44:07;;;;;;;3.20;2.30;;;2.00;84.30;;;;;;5041795;28;20215;-69
2021/12/12 06:46:37;;;;;;;5.07;2.80;;;2.00;84.00;;;;;;5053811;28;20217;-69
2021/12/12 06:49:07;;;;;;;3.77;3.27;;;2.00;84.00;;;;;;5027142;28;20220;-69
2021/12/12 06:51:41;;;;;;;3.30;2.70;;;2.00;84.00;;;;;;5042687;28;20207;-69
2021/12/12 06:54:09;;;;;;;3.27;2.70;;;2.00;83.80;;;;;;5035998;28;20615;-69
2021/12/12 06:56:37;;;;;;;4.00;2.60;;;2.10;83.80;;;;;;5027803;28;20211;-69
2021/12/12 06:59:04;;;;;;;5.67;2.67;;;2.10;83.70;;;;;;5043069;28;20222;-69
2021/12/12 07:01:34;;;;;;;6.50;3.47;;;2.10;83.60;;;;;;5044823;28;20211;-69
2021/12/12 07:04:06;;;;;;;16.50;10.60;;;2.10;83.60;;;;;;5038023;28;20569;-69
2021/12/12 07:06:34;;;;;;;14.53;9.10;;;2.10;83.40;;;;;;5053990;28;20246;-69
2021/12/12 07:09:05;;;;;;;10.50;6.50;;;2.10;83.20;;;;;;5049430;28;20219;-69
2021/12/12 07:11:36;;;;;;;129.80;71.97;;;2.10;83.20;;;;;;5044186;28;20210;-69
2021/12/12 07:14:06;;;;;;;13.90;8.93;;;2.10;83.20;;;;;;5040159;28;20233;-69
2021/12/12 07:16:34;;;;;;;9.70;6.07;;;2.20;83.80;;;;;;5019100;28;20221;-69
2021/12/12 07:19:03;;;;;;;10.43;5.37;;;2.30;83.10;;;;;;5021658;28;20338;-69
2021/12/12 07:21:30;;;;;;;8.93;5.00;;;2.30;83.20;;;;;;5036326;28;20258;-69
2021/12/12 07:24:01;;;;;;;13.73;7.23;;;2.40;82.90;;;;;;5051004;28;20652;-69
2021/12/12 07:26:29;;;;;;;37.37;14.07;;;2.40;82.70;;;;;;5054982;28;20206;-69
2021/12/12 07:28:58;;;;;;;32.23;13.30;;;2.50;82.60;;;;;;5052555;28;20211;-69
2021/12/12 07:31:29;;;;;;;10.10;6.17;;;2.60;82.50;;;;;;5027765;28;20345;-69
2021/12/12 07:34:00;;;;;;;10.67;5.30;;;2.60;82.30;;;;;;5042551;28;20227;-69
2021/12/12 07:36:34;;;;;;;8.40;5.07;;;2.70;82.90;;;;;;5035063;28;20207;-69
2021/12/12 07:39:10;;;;;;;10.63;4.20;;;2.80;82.20;;;;;;5021669;28;20221;-69
2021/12/12 07:41:39;;;;;;;5.27;4.03;;;2.80;82.20;;;;;;5024406;28;20210;-69
2021/12/12 07:44:10;;;;;;;6.33;5.00;;;2.80;82.20;;;;;;5019542;28;20212;-69
2021/12/12 07:46:41;;;;;;;7.57;4.63;;;2.90;82.20;;;;;;5036436;28;20219;-69
2021/12/12 07:49:09;;;;;;;10.90;5.13;;;2.90;82.10;;;;;;5018545;28;20210;-69
2021/12/12 07:51:39;;;;;;;5.40;4.63;;;3.00;82.20;;;;;;5035189;28;20573;-69
2021/12/12 07:54:08;;;;;;;7.13;5.40;;;3.00;82.20;;;;;;5019375;28;20548;-69
2021/12/12 07:56:38;;;;;;;8.50;5.23;;;3.00;82.10;;;;;;5027818;28;20207;-69
2021/12/12 07:59:07;;;;;;;7.23;5.40;;;3.00;82.10;;;;;;5045393;28;20211;-69
2021/12/12 08:01:36;;;;;;;7.87;5.03;;;3.10;82.20;;;;;;5025309;28;20204;-69
2021/12/12 08:04:04;;;;;;;9.20;6.10;;;3.10;82.20;;;;;;5026993;28;20556;-69
2021/12/12 08:06:32;;;;;;;8.33;5.60;;;3.20;82.20;;;;;;5025294;28;20232;-69
2021/12/12 08:09:00;;;;;;;7.77;5.93;;;3.30;82.10;;;;;;5032753;28;20278;-69
2021/12/12 08:11:30;;;;;;;6.40;4.53;;;3.40;81.90;;;;;;5027788;28;20264;-69
2021/12/12 08:13:59;;;;;;;5.87;4.37;;;3.40;81.70;;;;;;5042354;28;20239;-69
2021/12/12 08:16:27;;;;;;;7.10;4.70;;;3.50;81.50;;;;;;5018031;28;20216;-69
2021/12/12 08:18:58;;;;;;;5.87;4.90;;;3.60;81.40;;;;;;5035646;28;20296;-69
2021/12/12 08:21:27;;;;;;;7.33;5.13;;;3.60;81.10;;;;;;5038681;28;20512;-69
2021/12/12 08:23:55;;;;;;;6.83;5.10;;;3.70;81.00;;;;;;5043752;28;20764;-69
2021/12/12 08:26:28;;;;;;;8.73;5.00;;;3.80;80.80;;;;;;5007205;28;20219;-69
2021/12/12 08:28:56;;;;;;;8.40;4.97;;;3.90;80.60;;;;;;5053148;28;20661;-69
2021/12/12 08:31:24;;;;;;;6.40;4.40;;;3.90;80.50;;;;;;5041404;28;20562;-69
2021/12/12 08:33:53;;;;;;;7.57;4.67;;;4.00;80.30;;;;;;5041842;28;20208;-69
2021/12/12 08:36:20;;;;;;;5.13;4.33;;;4.00;80.00;;;;;;5042841;28;20217;-69
2021/12/12 08:38:48;;;;;;;4.97;4.47;;;4.10;79.80;;;;;;5019475;28;20717;-69
2021/12/12 08:41:16;;;;;;;8.20;4.83;;;4.20;79.60;;;;;;5049640;28;20278;-69
2021/12/12 08:43:43;;;;;;;7.13;5.00;;;4.30;79.40;;;;;;5042253;28;20224;-69
2021/12/12 08:46:13;;;;;;;6.47;5.37;;;4.30;79.30;;;;;;5047502;28;20223;-69
2021/12/12 08:48:51;;;;;;;5.30;4.67;;;4.40;79.40;;;;;;5039322;28;20565;-69
2021/12/12 08:51:29;;;;;;;6.60;5.10;;;4.40;79.50;;;;;;5038876;28;20602;-69
2021/12/12 08:54:02;;;;;;;7.97;5.90;;;4.50;79.40;;;;;;5027040;28;20243;-69
2021/12/12 08:56:44;;;;;;;8.03;4.93;;;4.60;79.20;;;;;;5048909;28;20222;-69
2021/12/12 08:59:17;;;;;;;6.83;5.07;;;4.70;79.20;;;;;;5036714;28;20710;-69
2021/12/12 09:01:46;;;;;;;9.77;5.10;;;4.80;79.00;;;;;;5028657;28;20222;-69
2021/12/12 09:04:14;;;;;;;8.87;5.23;;;4.80;78.90;;;;;;5046804;28;20208;-69
2021/12/12 09:07:15;;;;;;;5.13;4.57;;;4.90;78.70;;;;;;5048572;28;20216;-69
2021/12/12 09:09:49;;;;;;;7.27;4.83;;;5.00;78.60;;;;;;5046436;28;20271;-69
2021/12/12 09:12:25;;;;;;;5.73;4.70;;;5.10;78.40;;;;;;5052765;28;20604;-69
2021/12/12 09:15:03;;;;;;;6.90;5.07;;;5.20;78.30;;;;;;5042487;28;20679;-69
2021/12/12 09:17:39;;;;;;;8.27;5.17;;;5.30;78.20;;;;;;5023002;28;20232;-69
2021/12/12 09:20:12;;;;;;;8.33;4.83;;;5.40;77.90;;;;;;5050226;28;20205;-69
2021/12/12 09:22:54;;;;;;;8.20;4.73;;;5.50;77.70;;;;;;5037173;28;20320;-69
2021/12/12 09:25:40;;;;;;;9.00;5.80;;;5.60;78.00;;;;;;5032208;28;20208;-69
2021/12/12 09:28:15;;;;;;;8.70;5.50;;;5.70;77.00;;;;;;5022310;28;20701;-69
2021/12/12 09:30:45;;;;;;;7.13;5.10;;;5.70;76.90;;;;;;5033940;28;20757;-69
2021/12/12 09:33:20;;;;;;;8.17;5.27;;;5.80;76.80;;;;;;5027637;28;20210;-69
2021/12/12 09:35:53;;;;;;;8.43;5.33;;;5.90;76.60;;;;;;5026696;28;20222;-69
2021/12/12 09:38:28;;;;;;;9.47;5.83;;;6.00;76.50;;;;;;5035430;28;20237;-69
2021/12/12 09:41:11;;;;;;;12.70;6.30;;;6.10;76.40;;;;;;5029833;28;20224;-69
2021/12/12 09:44:17;;;;;;;8.27;5.73;;;6.20;75.90;;;;;;5047875;28;20203;-69
2021/12/12 09:47:29;;;;;;;9.67;5.70;;;6.30;75.60;;;;;;5029989;28;20220;-69
2021/12/12 09:53:43;;;;;;;8.77;5.43;;;6.50;74.90;;;;;;5038367;28;20251;-69
2021/12/12 09:56:43;;;;;;;7.80;5.37;;;6.60;74.20;;;;;;5046017;28;20305;-69
2021/12/12 09:59:41;;;;;;;6.60;4.90;;;6.70;73.90;;;;;;5019507;28;20258;-69
2021/12/12 10:02:23;;;;;;;6.20;5.07;;;6.70;73.80;;;;;;5034099;28;20213;-69
2021/12/12 10:05:04;;;;;;;7.97;5.37;;;6.80;73.80;;;;;;5041299;28;20606;-69
2021/12/12 10:07:56;;;;;;;7.23;5.33;;;6.80;73.70;;;;;;5028186;28;20226;-69
2021/12/12 10:10:37;;;;;;;9.27;5.77;;;6.90;73.70;;;;;;5033216;28;20657;-69
2021/12/12 10:13:14;;;;;;;10.63;5.20;;;6.90;73.90;;;;;;5031603;28;20224;-69
2021/12/12 10:15:47;;;;;;;9.70;6.17;;;7.00;73.90;;;;;;5025640;28;20249;-69
2021/12/12 10:19:00;;;;;;;10.90;5.67;;;7.00;73.60;;;;;;5044904;28;20233;-69
2021/12/12 10:21:41;;;;;;;8.63;5.70;;;7.10;73.40;;;;;;4975550;28;20230;-69
2021/12/12 10:24:19;;;;;;;10.33;6.00;;;7.10;73.60;;;;;;5030948;28;20213;-69
2021/12/12 10:26:59;;;;;;;8.77;6.10;;;7.20;73.70;;;;;;5042910;28;20218;-69
2021/12/12 10:29:33;;;;;;;9.63;5.27;;;7.20;73.60;;;;;;5043584;28;20322;-69
2021/12/12 10:32:12;;;;;;;7.97;5.60;;;7.30;73.50;;;;;;5031519;28;20260;-69
2021/12/12 10:34:49;;;;;;;8.60;6.73;;;7.30;73.60;;;;;;5036071;28;20209;-69
2021/12/12 10:37:21;;;;;;;6.13;5.40;;;7.40;73.70;;;;;;5034662;28;20218;-69
2021/12/12 10:40:01;;;;;;;9.03;5.87;;;7.50;73.90;;;;;;5048529;28;20221;-69
2021/12/12 10:42:42;;;;;;;8.67;6.17;;;7.60;73.90;;;;;;5019845;28;20285;-69
2021/12/12 10:45:31;;;;;;;7.47;6.40;;;7.70;73.90;;;;;;5044579;28;20217;-69
2021/12/12 10:48:11;;;;;;;9.40;6.73;;;7.80;73.90;;;;;;5044386;28;20502;-69
2021/12/12 10:50:56;;;;;;;12.20;6.47;;;7.80;73.90;;;;;;5029535;28;20222;-69
2021/12/12 10:53:28;;;;;;;9.47;6.37;;;7.90;73.20;;;;;;5045834;28;20273;-69
2021/12/12 10:56:13;;;;;;;9.67;5.93;;;8.00;72.20;;;;;;5022651;28;20684;-69
2021/12/12 10:58:48;;;;;;;9.03;5.77;;;8.10;71.10;;;;;;5037589;28;20230;-69
2021/12/12 11:01:22;;;;;;;9.40;5.77;;;8.10;70.50;;;;;;5038149;28;20218;-69
2021/12/12 11:04:09;;;;;;;5.53;4.70;;;8.20;70.40;;;;;;5014924;28;20245;-69
2021/12/12 11:06:58;;;;;;;5.87;3.97;;;8.30;70.00;;;;;;5025518;28;20547;-69
2021/12/12 11:09:38;;;;;;;5.73;4.23;;;8.40;69.90;;;;;;5045536;28;20225;-69
2021/12/12 11:12:33;;;;;;;7.03;4.37;;;8.50;68.30;;;;;;5046140;28;20227;-69
2021/12/12 11:15:11;;;;;;;6.90;4.80;;;8.50;68.40;;;;;;5033494;28;20203;-69
2021/12/12 11:18:09;;;;;;;4.87;4.20;;;8.60;68.10;;;;;;5034880;28;20301;-69
2021/12/12 11:20:41;;;;;;;5.97;4.30;;;8.70;67.90;;;;;;4991404;28;20218;-69
2021/12/12 11:23:12;;;;;;;6.23;4.27;;;8.80;66.60;;;;;;5043046;28;20292;-69
2021/12/12 11:25:44;;;;;;;7.27;4.07;;;8.90;65.40;;;;;;5053756;28;20213;-69
2021/12/12 11:28:33;;;;;;;4.43;3.80;;;8.90;65.30;;;;;;5046565;28;20274;-69
2021/12/12 11:31:12;;;;;;;7.47;4.53;;;9.00;65.80;;;;;;5023678;28;20290;-69
2021/12/12 11:33:43;;;;;;;4.93;3.90;;;9.10;65.60;;;;;;5001429;28;20620;-69
2021/12/12 11:36:14;;;;;;;4.03;3.50;;;9.20;64.60;;;;;;5035933;28;20262;-69
2021/12/12 11:38:50;;;;;;;8.03;3.63;;;9.30;65.80;;;;;;5023804;28;20243;-69
2021/12/12 11:41:32;;;;;;;4.77;3.60;;;9.30;65.10;;;;;;5037461;28;20211;-69
2021/12/12 11:44:10;;;;;;;5.43;3.80;;;9.30;63.60;;;;;;5022938;28;20218;-69
2021/12/12 11:47:03;;;;;;;4.70;3.80;;;9.40;65.00;;;;;;5035809;28;20215;-69
2021/12/12 11:50:10;;;;;;;4.43;3.90;;;9.50;64.90;;;;;;5047279;28;20211;-69
2021/12/12 11:53:17;;;;;;;6.00;4.17;;;9.60;65.70;;;;;;5022247;28;20224;-69
2021/12/12 11:55:53;;;;;;;5.37;3.50;;;9.70;65.40;;;;;;4978657;28;20658;-69
2021/12/12 11:58:30;;;;;;;4.70;3.93;;;9.70;65.70;;;;;;5016488;28;20265;-69
2021/12/12 12:01:11;;;;;;;6.23;4.23;;;9.80;65.60;;;;;;5023548;28;20219;-69
2021/12/12 12:04:09;;;;;;;5.47;3.80;;;9.90;65.20;;;;;;5046358;28;20214;-69
2021/12/12 12:07:10;;;;;;;5.73;4.30;;;10.00;66.10;;;;;;5017760;28;20314;-69
2021/12/12 12:10:02;;;;;;;4.93;4.10;;;10.10;66.10;;;;;;5023629;28;20302;-69
2021/12/12 12:12:48;;;;;;;6.53;4.77;;;10.20;63.60;;;;;;5038119;28;20227;-69
2021/12/12 12:15:49;;;;;;;6.90;4.87;;;10.20;61.80;;;;;;5022575;28;20314;-69
2021/12/12 12:18:37;;;;;;;7.33;4.77;;;10.10;62.70;;;;;;5033935;28;20231;-69
2021/12/12 12:21:10;;;;;;;9.13;5.00;;;10.20;62.90;;;;;;4984987;28;20254;-69
2021/12/12 12:24:17;;;;;;;5.77;4.63;;;10.20;62.70;;;;;;5026834;28;20634;-69
2021/12/12 12:27:02;;;;;;;6.10;4.57;;;10.20;63.50;;;;;;5048262;28;20260;-69
2021/12/12 12:29:33;;;;;;;6.90;4.43;;;10.10;63.10;;;;;;5030644;28;20225;-69
2021/12/12 12:32:38;;;;;;;6.07;4.47;;;10.10;62.90;;;;;;5024250;28;20238;-69
2021/12/12 12:35:42;;;;;;;6.07;4.90;;;10.10;64.00;;;;;;5044428;28;20212;-69
2021/12/12 12:38:34;;;;;;;5.27;4.47;;;10.20;64.20;;;;;;5044749;28;20310;-69
2021/12/12 12:41:29;;;;;;;5.93;4.53;;;10.20;63.10;;;;;;5046675;28;20214;-69
2021/12/12 12:44:17;;;;;;;6.03;4.53;;;10.30;63.30;;;;;;5041802;28;20205;-69
2021/12/12 12:47:44;;;;;;;4.50;3.90;;;10.40;62.80;;;;;;5040110;28;20670;-69
2021/12/12 12:50:31;;;;;;;5.03;4.03;;;10.40;62.60;;;;;;5038569;28;20284;-69
2021/12/12 12:53:26;;;;;;;6.07;4.70;;;10.40;62.60;;;;;;5024143;28;20273;-69
2021/12/12 12:56:14;;;;;;;8.13;5.20;;;10.40;62.30;;;;;;5047776;28;20514;-69
2021/12/12 12:59:17;;;;;;;7.63;5.13;;;10.40;62.90;;;;;;5035408;28;20318;-69
2021/12/12 13:02:16;;;;;;;7.93;4.87;;;10.40;63.20;;;;;;5039227;28;20233;-69
2021/12/12 13:04:56;;;;;;;8.20;5.80;;;10.40;62.90;;;;;;5042779;28;20266;-68
2021/12/12 13:08:04;;;;;;;7.30;5.00;;;10.40;62.70;;;;;;5043252;28;20634;-68
2021/12/12 13:10:34;;;;;;;8.10;5.57;;;10.30;63.20;;;;;;5034019;28;20545;-68
2021/12/12 13:13:17;;;;;;;9.00;6.20;;;10.40;62.60;;;;;;5040342;28;20239;-68
2021/12/12 13:16:10;;;;;;;7.47;5.30;;;10.30;61.30;;;;;;5025764;28;20604;-68
2021/12/12 13:18:54;;;;;;;9.03;5.87;;;10.30;61.70;;;;;;5033370;28;20289;-68
2021/12/12 13:21:32;;;;;;;9.20;5.33;;;10.20;59.70;;;;;;5024642;28;20221;-68
2021/12/12 13:24:08;;;;;;;7.43;5.37;;;10.20;59.10;;;;;;5039465;28;20229;-68
2021/12/12 13:26:35;;;;;;;6.10;5.30;;;10.10;59.00;;;;;;5036017;28;20217;-68
2021/12/12 13:29:14;;;;;;;7.50;5.33;;;10.10;60.30;;;;;;5038582;28;20717;-68
2021/12/12 13:32:05;;;;;;;8.87;5.20;;;10.10;58.90;;;;;;5026551;28;20772;-68
2021/12/12 13:34:45;;;;;;;6.80;5.47;;;10.10;59.40;;;;;;5042005;28;20211;-68
2021/12/12 13:37:39;;;;;;;7.43;5.47;;;10.00;58.60;;;;;;5038360;28;20638;-68
2021/12/12 13:40:19;;;;;;;9.67;6.07;;;10.00;59.60;;;;;;5030819;28;20328;-68
2021/12/12 13:43:25;;;;;;;7.80;5.97;;;10.00;60.40;;;;;;5030072;28;20220;-68
2021/12/12 13:46:04;;;;;;;7.20;5.60;;;10.00;61.40;;;;;;5027346;28;20235;-69
2021/12/12 13:49:08;;;;;;;5.50;4.70;;;9.90;61.90;;;;;;5036945;28;20628;-69
2021/12/12 13:51:52;;;;;;;5.90;4.80;;;10.00;62.80;;;;;;5032915;28;20255;-69
2021/12/12 13:54:32;;;;;;;7.60;5.00;;;9.90;63.40;;;;;;5012795;28;20309;-69
2021/12/12 13:57:06;;;;;;;6.13;5.50;;;9.90;63.90;;;;;;5048391;28;20211;-69
2021/12/12 13:59:45;;;;;;;8.17;5.10;;;9.90;64.40;;;;;;5048426;28;20255;-69